createdAt,value
2022-12-31T00:00:52.665Z,87.03
2022-12-31T00:03:20.765Z,86.27
2022-12-31T00:05:50.263Z,86.54
2022-12-31T00:08:18.331Z,86.19
2022-12-31T00:10:46.404Z,85.57
2022-12-31T00:13:15.029Z,86.02
2022-12-31T00:15:44.721Z,86.14
2022-12-31T00:18:13.089Z,85.57
2022-12-31T00:20:42.846Z,85.50
2022-12-31T00:23:12.535Z,85.22
2022-12-31T00:25:40.562Z,85.39
2022-12-31T00:28:08.615Z,85.45
2022-12-31T00:30:36.600Z,85.12
2022-12-31T00:33:04.769Z,84.75
2022-12-31T00:35:34.659Z,84.84
2022-12-31T00:38:02.674Z,85.48
2022-12-31T00:40:32.071Z,85.29
2022-12-31T00:43:00.000Z,85.59
2022-12-31T00:45:27.994Z,85.67
2022-12-31T00:47:55.985Z,85.51
2022-12-31T00:50:23.960Z,85.79
2022-12-31T00:52:51.843Z,85.54
2022-12-31T00:55:19.960Z,85.74
2022-12-31T00:57:49.272Z,85.78
2022-12-31T01:00:18.142Z,85.25
2022-12-31T01:02:46.233Z,85.57
2022-12-31T01:05:14.336Z,85.61
2022-12-31T01:07:42.346Z,85.70
2022-12-31T01:10:11.512Z,85.82
2022-12-31T01:12:39.441Z,85.28
2022-12-31T01:15:10.019Z,84.95
2022-12-31T01:17:38.058Z,85.44
2022-12-31T01:20:07.274Z,85.34
2022-12-31T01:22:35.306Z,85.81
2022-12-31T01:25:03.366Z,85.19
2022-12-31T01:27:31.373Z,85.05
2022-12-31T01:29:59.303Z,84.35
2022-12-31T01:32:28.726Z,84.27
2022-12-31T01:34:56.677Z,84.26
2022-12-31T01:37:25.156Z,84.21
2022-12-31T01:39:53.085Z,84.64
2022-12-31T01:42:21.170Z,84.64
2022-12-31T01:44:54.529Z,84.58
2022-12-31T01:47:36.705Z,83.98
2022-12-31T01:50:13.864Z,84.21
2022-12-31T01:52:47.199Z,84.05
2022-12-31T01:55:21.256Z,83.96
2022-12-31T01:57:53.606Z,84.03
2022-12-31T02:00:21.951Z,83.74
2022-12-31T02:02:51.920Z,84.13
2022-12-31T02:05:27.038Z,84.13
2022-12-31T02:07:56.145Z,84.31
2022-12-31T02:10:24.323Z,83.93
2022-12-31T02:12:53.730Z,84.05
2022-12-31T02:15:30.361Z,84.40
2022-12-31T02:18:15.179Z,84.43
2022-12-31T02:21:41.070Z,84.25
2022-12-31T02:24:51.328Z,84.40
2022-12-31T02:27:38.972Z,84.68
2022-12-31T02:30:14.641Z,84.56
2022-12-31T02:33:14.231Z,84.24
2022-12-31T02:35:50.944Z,84.89
2022-12-31T02:38:25.736Z,84.67
2022-12-31T02:40:55.476Z,85.04
2022-12-31T02:43:23.563Z,84.93
2022-12-31T02:46:08.282Z,84.86
2022-12-31T02:48:50.901Z,84.15
2022-12-31T02:51:37.111Z,84.22
2022-12-31T02:54:22.884Z,84.42
2022-12-31T02:57:06.971Z,84.50
2022-12-31T03:00:00.445Z,85.08
2022-12-31T03:02:34.240Z,85.28
2022-12-31T03:05:04.431Z,85.75
2022-12-31T03:07:34.189Z,85.60
2022-12-31T03:10:03.427Z,85.19
2022-12-31T03:12:47.902Z,85.01
2022-12-31T03:15:23.098Z,85.65
2022-12-31T03:18:00.038Z,85.03
2022-12-31T03:20:50.521Z,85.41
2022-12-31T03:23:23.176Z,85.16
2022-12-31T03:25:50.714Z,84.99
2022-12-31T03:28:21.618Z,85.24
2022-12-31T03:30:53.610Z,85.33
2022-12-31T03:33:24.444Z,84.96
2022-12-31T03:35:54.076Z,85.00
2022-12-31T03:38:22.126Z,85.65
2022-12-31T03:40:53.569Z,85.38
2022-12-31T03:43:22.040Z,85.36
2022-12-31T03:45:52.500Z,84.84
2022-12-31T03:48:24.150Z,85.24
2022-12-31T03:50:52.901Z,84.86
2022-12-31T03:53:21.550Z,84.52
2022-12-31T03:55:53.010Z,84.80
2022-12-31T03:58:21.955Z,84.77
2022-12-31T04:00:50.924Z,84.82
2022-12-31T04:03:19.092Z,85.89
2022-12-31T04:05:54.285Z,85.22
2022-12-31T04:08:22.335Z,85.52
2022-12-31T04:10:50.438Z,85.87
2022-12-31T04:13:18.497Z,87.07
2022-12-31T04:15:46.472Z,86.98
2022-12-31T04:18:14.456Z,87.35
2022-12-31T04:20:42.426Z,87.01
2022-12-31T04:23:11.754Z,87.54
2022-12-31T04:25:39.739Z,86.91
2022-12-31T04:28:07.750Z,87.26
2022-12-31T04:30:35.813Z,87.22
2022-12-31T04:33:03.934Z,87.09
2022-12-31T04:35:31.913Z,86.96
2022-12-31T04:37:59.905Z,87.16
2022-12-31T04:40:29.300Z,86.79
2022-12-31T04:42:57.343Z,86.85
2022-12-31T04:45:25.323Z,87.21
2022-12-31T04:47:53.320Z,87.04
2022-12-31T04:50:21.451Z,87.14
2022-12-31T04:52:49.452Z,87.53
2022-12-31T04:55:17.686Z,87.21
2022-12-31T04:57:47.052Z,87.03
2022-12-31T05:00:15.995Z,88.01
2022-12-31T05:02:44.220Z,87.81
2022-12-31T05:05:12.259Z,86.92
2022-12-31T05:07:40.377Z,86.80
2022-12-31T05:10:10.221Z,87.52
2022-12-31T05:12:38.196Z,87.15
2022-12-31T05:15:09.667Z,86.98
2022-12-31T05:17:37.685Z,87.27
2022-12-31T05:20:07.783Z,86.86
2022-12-31T05:22:35.845Z,86.62
2022-12-31T05:25:04.017Z,87.75
2022-12-31T05:27:32.096Z,86.54
2022-12-31T05:30:01.087Z,87.42
2022-12-31T05:32:30.517Z,87.81
2022-12-31T05:34:59.706Z,88.24
2022-12-31T05:37:28.872Z,88.54
2022-12-31T05:39:57.188Z,89.85
2022-12-31T05:42:25.736Z,91.08
2022-12-31T05:44:53.794Z,91.89
2022-12-31T05:47:22.152Z,91.75
2022-12-31T05:49:51.525Z,92.67
2022-12-31T05:52:20.096Z,93.19
2022-12-31T05:54:48.384Z,93.33
2022-12-31T05:57:16.660Z,93.45
2022-12-31T05:59:44.737Z,93.51
2022-12-31T06:02:12.837Z,93.81
2022-12-31T06:04:40.962Z,93.68
2022-12-31T06:07:10.453Z,93.35
2022-12-31T06:09:38.546Z,93.95
2022-12-31T06:12:07.770Z,93.94
2022-12-31T06:14:39.553Z,93.69
2022-12-31T06:17:10.272Z,93.37
2022-12-31T06:19:38.368Z,93.06
2022-12-31T06:22:06.375Z,92.88
2022-12-31T06:24:35.805Z,92.79
2022-12-31T06:27:03.858Z,92.99
2022-12-31T06:29:31.832Z,92.46
2022-12-31T06:31:59.797Z,92.54
2022-12-31T06:34:27.776Z,92.25
2022-12-31T06:36:55.752Z,92.42
2022-12-31T06:39:23.792Z,91.90
2022-12-31T06:41:53.299Z,91.13
2022-12-31T06:44:22.527Z,91.32
2022-12-31T06:46:50.832Z,91.01
2022-12-31T06:49:19.049Z,90.99
2022-12-31T06:51:47.759Z,90.76
2022-12-31T06:54:16.043Z,90.59
2022-12-31T06:56:45.074Z,89.89
2022-12-31T06:59:28.350Z,89.93
2022-12-31T07:02:15.465Z,89.93
2022-12-31T07:05:10.082Z,89.81
2022-12-31T07:07:56.329Z,89.59
2022-12-31T07:10:40.107Z,89.09
2022-12-31T07:13:39.817Z,88.57
2022-12-31T07:16:20.812Z,88.23
2022-12-31T07:18:59.157Z,87.96
2022-12-31T07:21:36.655Z,86.85
2022-12-31T07:24:07.889Z,87.17
2022-12-31T07:27:05.417Z,87.35
2022-12-31T07:30:02.598Z,86.97
2022-12-31T07:33:00.009Z,86.63
2022-12-31T07:35:43.018Z,86.35
2022-12-31T07:38:26.020Z,86.34
2022-12-31T07:41:09.964Z,86.20
2022-12-31T07:43:54.934Z,85.86
2022-12-31T07:46:37.565Z,85.10
2022-12-31T07:49:15.163Z,84.98
2022-12-31T07:51:43.877Z,84.66
2022-12-31T07:54:14.248Z,83.67
2022-12-31T07:56:44.032Z,83.59
2022-12-31T07:59:33.491Z,83.53
2022-12-31T08:02:14.458Z,83.32
2022-12-31T08:04:59.034Z,82.23
2022-12-31T08:07:41.678Z,82.31
2022-12-31T08:10:20.318Z,82.35
2022-12-31T08:12:51.287Z,81.70
2022-12-31T08:17:56.037Z,81.24
2022-12-31T08:20:26.876Z,81.09
2022-12-31T08:23:25.576Z,80.52
2022-12-31T08:26:20.281Z,80.46
2022-12-31T08:29:27.565Z,80.95
2022-12-31T08:32:08.334Z,80.66
2022-12-31T08:34:50.925Z,80.77
2022-12-31T08:37:32.185Z,80.66
2022-12-31T08:40:24.260Z,79.78
2022-12-31T08:43:31.089Z,80.52
2022-12-31T08:46:01.087Z,80.08
2022-12-31T08:48:39.739Z,79.77
2022-12-31T08:51:15.659Z,79.70
2022-12-31T08:53:45.934Z,78.91
2022-12-31T08:56:29.929Z,79.01
2022-12-31T08:59:16.620Z,79.19
2022-12-31T09:02:09.297Z,78.89
2022-12-31T09:04:56.277Z,77.92
2022-12-31T09:07:36.688Z,77.68
2022-12-31T09:10:19.377Z,77.12
2022-12-31T09:13:02.089Z,77.80
2022-12-31T09:15:41.111Z,77.58
2022-12-31T09:18:12.803Z,77.86
2022-12-31T09:20:43.350Z,76.62
2022-12-31T09:23:14.385Z,77.20
2022-12-31T09:26:11.610Z,76.83
2022-12-31T09:28:55.062Z,76.39
2022-12-31T09:31:35.768Z,76.61
2022-12-31T09:34:17.329Z,76.34
2022-12-31T09:36:51.685Z,75.97
2022-12-31T09:39:34.003Z,76.20
2022-12-31T09:42:37.775Z,75.78
2022-12-31T09:45:40.050Z,75.74
2022-12-31T09:48:59.671Z,76.37
2022-12-31T09:51:32.474Z,77.39
2022-12-31T09:54:53.468Z,79.47
2022-12-31T09:57:41.272Z,81.87
2022-12-31T10:00:31.944Z,82.54
2022-12-31T10:03:30.957Z,82.82
2022-12-31T10:06:24.113Z,83.71
2022-12-31T10:09:21.997Z,83.57
2022-12-31T10:12:19.990Z,84.37
2022-12-31T10:15:17.609Z,84.72
2022-12-31T10:18:02.547Z,84.54
2022-12-31T10:20:56.005Z,85.60
2022-12-31T10:24:00.933Z,86.99
2022-12-31T10:27:02.708Z,87.91
2022-12-31T10:29:46.502Z,88.27
2022-12-31T10:32:31.407Z,89.17
2022-12-31T10:35:16.357Z,89.96
2022-12-31T10:37:58.944Z,90.30
2022-12-31T10:40:48.337Z,90.97
2022-12-31T10:43:54.127Z,90.58
2022-12-31T10:47:06.510Z,90.95
2022-12-31T10:50:24.240Z,90.30
2022-12-31T10:53:55.132Z,90.87
2022-12-31T10:57:07.981Z,90.39
2022-12-31T11:00:13.398Z,90.63
2022-12-31T11:03:38.010Z,90.60
2022-12-31T11:06:56.969Z,91.28
2022-12-31T11:10:15.581Z,91.15
2022-12-31T11:14:00.925Z,91.27
2022-12-31T11:17:01.339Z,91.39
2022-12-31T11:19:39.938Z,91.55
2022-12-31T11:22:36.879Z,91.71
2022-12-31T11:25:27.474Z,91.82
2022-12-31T11:28:18.781Z,91.71
2022-12-31T11:31:11.836Z,91.68
2022-12-31T11:34:02.259Z,91.55
2022-12-31T11:36:45.522Z,91.41
2022-12-31T11:39:35.529Z,91.30
2022-12-31T11:42:20.373Z,90.88
2022-12-31T11:44:58.568Z,90.82
2022-12-31T11:48:28.675Z,90.35
2022-12-31T11:50:50.011Z,90.05
2022-12-31T11:53:43.769Z,89.03
2022-12-31T11:56:19.206Z,88.10
2022-12-31T11:58:52.213Z,87.94
2022-12-31T12:01:26.134Z,87.89
2022-12-31T12:03:54.530Z,87.63
2022-12-31T12:06:30.395Z,87.49
2022-12-31T12:09:05.500Z,86.67
2022-12-31T12:11:40.267Z,86.29
2022-12-31T12:14:21.648Z,84.61
2022-12-31T12:17:00.888Z,83.33
2022-12-31T12:19:35.920Z,81.88
2022-12-31T12:22:12.908Z,78.76
2022-12-31T12:24:41.068Z,77.43
2022-12-31T12:27:25.536Z,75.58
2022-12-31T12:29:53.640Z,74.26
2022-12-31T12:32:25.782Z,73.48
2022-12-31T12:34:54.575Z,73.38
2022-12-31T12:37:33.374Z,72.19
2022-12-31T12:40:04.771Z,71.23
2022-12-31T12:42:34.334Z,71.30
2022-12-31T12:45:05.801Z,71.31
2022-12-31T12:47:36.125Z,70.96
2022-12-31T12:50:06.265Z,70.44
2022-12-31T12:53:05.640Z,70.45
2022-12-31T12:55:47.820Z,70.33
2022-12-31T12:58:38.055Z,69.71
2022-12-31T13:01:25.070Z,69.50
2022-12-31T13:04:35.737Z,69.07
2022-12-31T13:07:25.000Z,69.81
2022-12-31T13:10:14.476Z,69.69
2022-12-31T13:15:53.453Z,68.99
2022-12-31T13:18:48.362Z,68.84
2022-12-31T13:21:44.060Z,68.30
2022-12-31T13:24:29.917Z,68.03
2022-12-31T13:27:14.392Z,67.75
2022-12-31T13:29:47.940Z,68.01
2022-12-31T13:32:24.433Z,67.88
2022-12-31T13:35:01.614Z,67.62
2022-12-31T13:37:38.819Z,67.83
2022-12-31T13:40:22.181Z,67.49
2022-12-31T13:43:01.520Z,67.83
2022-12-31T13:45:38.175Z,67.62
2022-12-31T13:48:15.456Z,66.71
2022-12-31T13:50:52.813Z,67.35
2022-12-31T13:53:30.448Z,67.37
2022-12-31T13:56:05.028Z,67.34
2022-12-31T13:58:43.765Z,67.55
2022-12-31T14:01:21.407Z,68.22
2022-12-31T14:04:00.757Z,68.67
2022-12-31T14:06:39.642Z,68.47
2022-12-31T14:09:10.350Z,68.29
2022-12-31T14:12:13.473Z,68.58
2022-12-31T14:14:53.246Z,69.14
2022-12-31T14:17:26.603Z,68.99
2022-12-31T14:20:12.237Z,68.64
2022-12-31T14:22:51.189Z,68.73
2022-12-31T14:25:27.646Z,69.45
2022-12-31T14:27:59.198Z,69.20
2022-12-31T14:30:34.122Z,70.15
2022-12-31T14:33:18.426Z,70.61
2022-12-31T14:36:28.989Z,70.46
2022-12-31T14:39:21.143Z,70.90
2022-12-31T14:42:07.305Z,70.83
2022-12-31T14:44:57.947Z,71.13
2022-12-31T14:47:46.486Z,70.83
2022-12-31T14:50:22.561Z,71.52
2022-12-31T14:52:55.543Z,71.95
2022-12-31T14:55:30.270Z,72.67
2022-12-31T15:00:57.580Z,72.63
2022-12-31T15:03:37.828Z,71.62
2022-12-31T15:06:40.158Z,71.44
2022-12-31T15:09:32.858Z,70.75
2022-12-31T15:12:21.614Z,70.37
2022-12-31T15:15:19.038Z,69.73
2022-12-31T15:18:05.971Z,69.73
2022-12-31T15:21:23.915Z,69.47
2022-12-31T15:23:52.167Z,69.56
2022-12-31T15:26:28.697Z,69.39
2022-12-31T15:29:05.139Z,69.21
2022-12-31T15:31:36.659Z,68.69
2022-12-31T15:34:07.891Z,68.68
2022-12-31T15:36:39.449Z,68.81
2022-12-31T15:39:26.757Z,68.90
2022-12-31T15:44:52.894Z,69.67
2022-12-31T15:47:30.915Z,69.76
2022-12-31T15:50:04.371Z,69.72
2022-12-31T15:52:43.111Z,69.52
2022-12-31T15:55:26.133Z,69.63
2022-12-31T15:58:02.215Z,69.49
2022-12-31T16:00:51.977Z,69.57
2022-12-31T16:03:23.527Z,69.36
2022-12-31T16:05:53.293Z,68.86
2022-12-31T16:08:26.728Z,68.79
2022-12-31T16:10:56.640Z,68.55
2022-12-31T16:13:29.400Z,68.34
2022-12-31T16:16:05.242Z,68.49
2022-12-31T16:18:41.153Z,68.35
2022-12-31T16:21:29.898Z,68.38
2022-12-31T16:24:01.270Z,68.42
2022-12-31T16:26:40.551Z,69.11
2022-12-31T16:29:16.147Z,68.72
2022-12-31T16:31:45.677Z,68.72
2022-12-31T16:34:18.514Z,68.16
2022-12-31T16:36:58.205Z,68.66
2022-12-31T16:39:32.725Z,68.43
2022-12-31T16:42:21.015Z,68.91
2022-12-31T16:44:52.415Z,69.05
2022-12-31T16:47:24.944Z,68.87
2022-12-31T16:50:04.045Z,69.03
2022-12-31T16:52:38.276Z,68.77
2022-12-31T16:55:11.387Z,69.13
2022-12-31T16:57:40.007Z,68.60
2022-12-31T17:00:20.820Z,68.49
2022-12-31T17:03:02.619Z,68.50
2022-12-31T17:05:32.626Z,68.03
2022-12-31T17:08:23.823Z,67.38
2022-12-31T17:10:52.187Z,67.91
2022-12-31T17:13:32.676Z,67.97
2022-12-31T17:16:03.112Z,67.68
2022-12-31T17:18:39.659Z,67.59
2022-12-31T17:21:11.542Z,67.57
2022-12-31T17:23:42.377Z,66.69
2022-12-31T17:26:15.129Z,67.21
2022-12-31T17:28:47.226Z,66.45
2022-12-31T17:31:38.329Z,66.53
2022-12-31T17:34:24.969Z,66.56
2022-12-31T17:37:00.420Z,66.17
2022-12-31T17:39:42.950Z,65.99
2022-12-31T17:42:12.003Z,65.93
2022-12-31T17:44:44.084Z,65.71
2022-12-31T17:47:17.166Z,65.61
2022-12-31T17:49:47.167Z,65.66
2022-12-31T17:52:17.356Z,65.50
2022-12-31T17:54:45.319Z,65.67
2022-12-31T17:57:27.474Z,65.92
2022-12-31T17:59:55.848Z,65.52
2022-12-31T18:02:25.658Z,65.77
2022-12-31T18:04:54.171Z,65.81
2022-12-31T18:07:22.244Z,65.85
2022-12-31T18:09:50.374Z,65.49
2022-12-31T18:12:20.182Z,65.56
2022-12-31T18:14:47.983Z,65.57
2022-12-31T18:17:17.200Z,65.99
2022-12-31T18:20:04.212Z,66.15
2022-12-31T18:22:33.710Z,66.55
2022-12-31T18:25:02.038Z,66.53
2022-12-31T18:27:30.685Z,66.71
2022-12-31T18:30:04.281Z,66.56
2022-12-31T18:32:34.396Z,66.29
2022-12-31T18:35:04.129Z,66.38
2022-12-31T18:37:38.224Z,66.85
2022-12-31T18:40:07.750Z,66.36
2022-12-31T18:42:35.696Z,66.76
2022-12-31T18:45:03.935Z,66.24
2022-12-31T18:47:37.449Z,66.29
2022-12-31T18:50:08.962Z,66.34
2022-12-31T18:52:36.879Z,66.88
2022-12-31T18:55:23.518Z,66.33
2022-12-31T18:57:51.628Z,66.15
2022-12-31T19:00:20.435Z,66.29
2022-12-31T19:02:48.468Z,65.86
2022-12-31T19:05:28.461Z,65.99
2022-12-31T19:07:57.651Z,65.75
2022-12-31T19:10:26.927Z,65.96
2022-12-31T19:12:55.293Z,66.34
2022-12-31T19:15:37.518Z,66.02
2022-12-31T19:18:07.721Z,65.94
2022-12-31T19:20:41.057Z,66.02
2022-12-31T19:23:18.482Z,65.98
2022-12-31T19:25:48.646Z,66.08
2022-12-31T19:28:19.361Z,66.72
2022-12-31T19:30:47.646Z,66.89
2022-12-31T19:33:16.814Z,67.14
2022-12-31T19:35:49.758Z,67.44
2022-12-31T19:38:22.836Z,67.89
2022-12-31T19:40:53.232Z,67.42
2022-12-31T19:43:28.444Z,67.77
2022-12-31T19:46:01.644Z,68.03
2022-12-31T19:48:32.810Z,67.28
2022-12-31T19:51:04.853Z,67.44
2022-12-31T19:53:32.896Z,67.34
2022-12-31T19:56:03.208Z,67.49
2022-12-31T19:58:34.164Z,67.42
2022-12-31T20:01:05.135Z,67.09
2022-12-31T20:03:34.310Z,67.05
2022-12-31T20:06:10.264Z,67.01
2022-12-31T20:08:43.301Z,66.64
2022-12-31T20:11:14.063Z,66.36
2022-12-31T20:13:43.364Z,66.07
2022-12-31T20:16:15.349Z,65.86
2022-12-31T20:18:47.818Z,65.61
2022-12-31T20:21:22.734Z,65.65
2022-12-31T20:23:54.557Z,65.63
2022-12-31T20:26:28.057Z,65.46
2022-12-31T20:28:55.990Z,65.55
2022-12-31T20:31:26.500Z,64.44
2022-12-31T20:33:55.262Z,64.32
2022-12-31T20:36:25.770Z,64.19
2022-12-31T20:38:53.847Z,63.85
2022-12-31T20:41:24.862Z,63.79
2022-12-31T20:43:53.217Z,63.65
2022-12-31T20:46:25.293Z,63.46
2022-12-31T20:48:56.722Z,63.51
2022-12-31T20:51:29.389Z,63.24
2022-12-31T20:54:00.885Z,62.66
2022-12-31T20:56:31.811Z,62.78
2022-12-31T20:59:00.012Z,62.03
2022-12-31T21:01:41.792Z,62.05
2022-12-31T21:04:16.920Z,61.95
2022-12-31T21:06:47.899Z,61.58
2022-12-31T21:09:18.083Z,61.37
2022-12-31T21:12:03.410Z,61.43
2022-12-31T21:14:34.280Z,61.59
2022-12-31T21:17:02.247Z,61.15
2022-12-31T21:19:30.217Z,60.68
2022-12-31T21:21:59.574Z,60.74
2022-12-31T21:24:27.571Z,60.45
2022-12-31T21:26:56.843Z,60.38
2022-12-31T21:29:25.705Z,60.37
2022-12-31T21:31:54.936Z,59.40
2022-12-31T21:34:22.936Z,59.55
2022-12-31T21:36:50.944Z,59.67
2022-12-31T21:39:20.297Z,59.43
2022-12-31T21:41:54.485Z,59.46
2022-12-31T21:44:24.847Z,59.48
2022-12-31T21:47:35.349Z,59.10
2022-12-31T21:50:06.382Z,58.87
2022-12-31T21:52:35.202Z,59.20
2022-12-31T21:55:24.611Z,58.79
2022-12-31T22:00:59.430Z,58.74
2022-12-31T22:03:34.600Z,58.71
2022-12-31T22:06:10.052Z,58.51
2022-12-31T22:08:39.682Z,58.84
2022-12-31T22:11:10.000Z,58.65
2022-12-31T22:13:39.220Z,59.12
2022-12-31T22:16:09.332Z,58.59
2022-12-31T22:18:40.470Z,58.67
2022-12-31T22:21:18.187Z,58.44
2022-12-31T22:23:50.484Z,58.35
2022-12-31T22:26:22.290Z,58.08
2022-12-31T22:28:51.141Z,58.04
2022-12-31T22:31:22.738Z,58.29
2022-12-31T22:33:51.530Z,58.24
2022-12-31T22:36:21.934Z,58.18
2022-12-31T22:38:52.188Z,58.14
2022-12-31T22:41:23.569Z,58.25
2022-12-31T22:44:02.555Z,57.62
2022-12-31T22:46:31.377Z,57.94
2022-12-31T22:49:01.794Z,57.83
2022-12-31T22:51:55.794Z,57.88
2022-12-31T22:54:19.121Z,57.92
2022-12-31T22:56:48.466Z,58.00
2022-12-31T22:59:16.485Z,57.52
2022-12-31T23:01:44.714Z,57.32
2022-12-31T23:04:13.160Z,57.10
2022-12-31T23:06:44.439Z,56.98
2022-12-31T23:09:31.527Z,57.10
2022-12-31T23:12:01.655Z,56.61
2022-12-31T23:14:47.179Z,56.47
2022-12-31T23:17:36.965Z,56.90
2022-12-31T23:20:24.323Z,56.71
2022-12-31T23:23:08.820Z,56.74
2022-12-31T23:25:39.793Z,56.90
2022-12-31T23:28:12.938Z,56.86
2022-12-31T23:30:42.606Z,56.52
2022-12-31T23:33:19.653Z,57.03
2022-12-31T23:35:48.816Z,56.33
2022-12-31T23:38:19.391Z,56.26
2022-12-31T23:40:47.550Z,55.96
2022-12-31T23:43:23.289Z,56.07
2022-12-31T23:45:52.035Z,56.66
2022-12-31T23:48:20.206Z,55.68
2022-12-31T23:50:53.975Z,55.96
2022-12-31T23:53:23.147Z,55.89
2022-12-31T23:55:51.577Z,55.82
2022-12-31T23:58:23.119Z,55.61
